Main page
METAR-TAF:

METAR-TAF

Airports :

Qurghonteppa, Tajikistan

Qurghonteppa International Airport

latitude: 37-51-44N, longitude: 068-51-46E, elevation: 449 m

Current weather observation

The report was made 18 minutes ago, at 00:00 UTC
Calm wind
Temperature 35°C
Humidity 59%
Pressure 1013 hPa
Visibility 10 km or more
Few clouds at a height of 20000 ft

METAR: UTDT 200000Z 00000MPS 9999 FEW200 16/08 Q1013 35////// RMK QFE720/0960

Time: 05:18 (00:18 UTC)

Forecast

The report was made 3 hours and 18 minutes ago, at 21:00 UTC
Forecast valid from 19 at 22 UTC to 20 at 07 UTC
Wind 4 kt from variable directions
Visibility: 8000 m

TAF: UTDT 192100Z 1922/2007 VRB02MPS 8000 NSC

Weather observations and forecasts of more than 4000 airports (METAR and TAF reports).

The available stations are represented by yellow and red dots on the map.

Hover mouse over dot to see the name of the station.

Then click to see weather observations and forecasts.

To change the map : click on the green buttons with a black cross to zoom in, on the green button with a dash to zoom out, or on the green arrows for adjacent maps.


METAR-TAF: